Time;durP1;ratioP1;P1;durP2;ratioP2;P2;SDS_P1;SDS_P2;PMS_P1;PMS_P2;Temp;Humidity;BMP_temperature;BMP_pressure;BME280_temperature;BME280_humidity;BME280_pressure;Samples;Min_cycle;Max_cycle;Signal;HPM_P1;HPM_P2
2023/01/28 00:02:17;;;;;;;0.10;0.10;;;3.10;99.90;;;;;;5064669;28;20221;-81
2023/01/28 00:04:43;;;;;;;0.03;0.03;;;3.10;99.90;;;;;;5064081;28;20197;-81
2023/01/28 00:07:09;;;;;;;0.10;0.10;;;3.10;99.90;;;;;;5064014;28;20264;-81
2023/01/28 00:09:34;;;;;;;0.10;0.10;;;3.10;99.90;;;;;;5072222;28;20229;-81
2023/01/28 00:12:00;;;;;;;0.10;0.10;;;3.00;99.90;;;;;;5065078;28;20229;-80
2023/01/28 00:14:25;;;;;;;0.10;0.10;;;3.00;99.90;;;;;;5064105;28;20252;-80
2023/01/28 00:16:51;;;;;;;0.10;0.10;;;3.00;99.90;;;;;;5066541;28;20218;-80
2023/01/28 00:19:16;;;;;;;0.00;0.00;;;2.90;99.90;;;;;;5064715;28;20339;-81
2023/01/28 00:21:42;;;;;;;0.10;0.10;;;2.90;99.90;;;;;;5064827;28;20200;-81
2023/01/28 00:24:08;;;;;;;0.07;0.07;;;2.90;99.90;;;;;;5064341;28;20187;-81
2023/01/28 00:26:34;;;;;;;0.10;0.10;;;2.90;99.90;;;;;;5063361;28;20678;-81
2023/01/28 00:29:00;;;;;;;0.10;0.10;;;2.90;99.90;;;;;;5064982;28;20702;-81
2023/01/28 00:31:26;;;;;;;0.10;0.10;;;2.90;99.90;;;;;;5064380;28;20934;-81
2023/01/28 00:33:53;;;;;;;0.10;0.10;;;2.90;99.90;;;;;;5064453;28;20245;-81
2023/01/28 00:36:21;;;;;;;0.10;0.10;;;2.80;99.90;;;;;;5063737;28;20193;-80
2023/01/28 00:38:52;;;;;;;0.10;0.10;;;2.80;99.90;;;;;;5063022;28;20628;-80
2023/01/28 00:41:22;;;;;;;0.10;0.10;;;2.70;99.90;;;;;;5064016;28;20188;-81
2023/01/28 00:43:49;;;;;;;0.00;0.00;;;2.70;99.90;;;;;;5064125;28;20243;-81
2023/01/28 00:46:15;;;;;;;0.10;0.10;;;2.70;99.90;;;;;;5063108;28;20190;-81
2023/01/28 00:48:41;;;;;;;0.10;0.10;;;2.70;99.90;;;;;;5063793;28;20315;-81
2023/01/28 00:51:08;;;;;;;0.10;0.10;;;2.70;99.90;;;;;;5062503;28;20191;-81
2023/01/28 00:53:35;;;;;;;0.10;0.10;;;2.60;99.90;;;;;;5062763;28;20206;-80
2023/01/28 00:56:01;;;;;;;0.10;0.10;;;2.60;99.90;;;;;;5062425;28;20184;-80
2023/01/28 00:58:27;;;;;;;0.10;0.10;;;2.60;99.90;;;;;;5063625;28;20349;-80
2023/01/28 01:00:52;;;;;;;0.10;0.10;;;2.50;99.90;;;;;;5063860;28;20293;-80
2023/01/28 01:03:19;;;;;;;0.10;0.10;;;2.50;99.90;;;;;;5064372;28;20185;-79
2023/01/28 01:05:45;;;;;;;0.10;0.10;;;2.50;99.90;;;;;;5062752;28;20173;-80
2023/01/28 01:08:10;;;;;;;0.00;0.00;;;2.50;99.90;;;;;;5062507;28;20188;-81
2023/01/28 01:10:38;;;;;;;0.10;0.10;;;2.50;99.90;;;;;;5061327;28;21246;-81
2023/01/28 01:13:05;;;;;;;0.00;0.00;;;2.50;99.90;;;;;;5061185;28;20274;-80
2023/01/28 01:15:30;;;;;;;0.10;0.10;;;2.60;99.90;;;;;;5063681;28;20254;-81
2023/01/28 01:17:57;;;;;;;0.10;0.10;;;2.50;99.90;;;;;;5061501;28;20234;-79
2023/01/28 01:20:26;;;;;;;0.00;0.00;;;2.50;99.90;;;;;;5060239;28;20538;-81
2023/01/28 01:22:52;;;;;;;0.10;0.10;;;2.60;99.90;;;;;;5059945;28;20255;-80
2023/01/28 01:25:18;;;;;;;0.10;0.10;;;2.60;99.90;;;;;;5062062;28;20196;-81
2023/01/28 01:27:44;;;;;;;0.10;0.10;;;2.60;99.90;;;;;;5061212;28;20187;-80
2023/01/28 01:30:11;;;;;;;0.10;0.10;;;2.60;99.90;;;;;;5059516;28;20207;-81
2023/01/28 01:32:37;;;;;;;0.10;0.10;;;2.70;99.90;;;;;;5058313;28;20187;-80
2023/01/28 01:35:05;;;;;;;0.10;0.10;;;2.60;99.90;;;;;;5058146;28;20247;-81
2023/01/28 01:37:31;;;;;;;0.10;0.10;;;2.60;99.90;;;;;;5058599;28;20206;-81
2023/01/28 01:39:57;;;;;;;0.10;0.10;;;2.60;99.90;;;;;;5059603;28;20203;-80
2023/01/28 01:42:24;;;;;;;0.10;0.10;;;2.60;99.90;;;;;;5061898;28;20218;-80
2023/01/28 01:44:59;;;;;;;0.10;0.10;;;2.60;99.90;;;;;;5059188;28;21233;-80
2023/01/28 01:47:34;;;;;;;0.10;0.10;;;2.70;99.90;;;;;;5062736;28;20204;-81
2023/01/28 01:50:12;;;;;;;0.10;0.10;;;2.60;99.90;;;;;;5058152;28;20328;-80
2023/01/28 01:52:39;;;;;;;0.10;0.10;;;2.70;99.90;;;;;;5062961;28;20190;-81
2023/01/28 01:55:10;;;;;;;0.10;0.10;;;2.70;99.90;;;;;;5060308;28;20178;-81
2023/01/28 01:57:36;;;;;;;0.10;0.10;;;2.70;99.90;;;;;;5060382;28;20201;-80
2023/01/28 02:00:05;;;;;;;0.10;0.10;;;2.70;99.90;;;;;;5061956;28;20209;-80
2023/01/28 02:02:38;;;;;;;0.10;0.10;;;2.70;99.90;;;;;;5060948;28;20266;-80
2023/01/28 02:05:04;;;;;;;0.10;0.10;;;2.80;99.90;;;;;;5062045;28;20229;-81
2023/01/28 02:07:30;;;;;;;0.10;0.10;;;2.80;99.90;;;;;;5061603;28;20182;-80
2023/01/28 02:09:56;;;;;;;0.10;0.10;;;2.70;99.90;;;;;;5058778;28;20218;-80
2023/01/28 02:12:27;;;;;;;0.10;0.10;;;2.70;99.90;;;;;;5061609;28;20188;-81
2023/01/28 02:15:00;;;;;;;0.10;0.10;;;2.70;99.90;;;;;;5060000;28;20184;-80
2023/01/28 02:17:25;;;;;;;0.10;0.10;;;2.80;99.90;;;;;;5059641;28;20322;-81
2023/01/28 02:20:03;;;;;;;0.10;0.10;;;2.80;99.90;;;;;;5057526;28;20287;-80
2023/01/28 02:22:44;;;;;;;0.10;0.10;;;2.80;99.90;;;;;;5061968;28;20655;-80
2023/01/28 02:25:33;;;;;;;0.10;0.10;;;2.80;99.90;;;;;;5074867;28;20192;-81
2023/01/28 02:28:08;;;;;;;0.47;0.47;;;2.80;99.90;;;;;;5060151;28;20187;-80
2023/01/28 02:30:57;;;;;;;0.00;0.00;;;2.80;99.90;;;;;;5059960;28;20232;-80
2023/01/28 02:33:42;;;;;;;0.10;0.10;;;2.80;99.90;;;;;;5060577;28;20203;-80
2023/01/28 02:36:26;;;;;;;0.10;0.10;;;2.80;99.90;;;;;;5061088;28;20180;-80
2023/01/28 02:38:54;;;;;;;0.10;0.10;;;2.80;99.90;;;;;;5075672;28;20219;-81
2023/01/28 02:41:34;;;;;;;0.10;0.10;;;2.90;99.90;;;;;;5060397;28;20682;-81
2023/01/28 02:44:02;;;;;;;0.10;0.10;;;2.90;99.90;;;;;;5058266;28;20185;-81
2023/01/28 02:49:20;;;;;;;0.10;0.10;;;2.90;99.90;;;;;;5059523;28;20297;-80
2023/01/28 02:52:00;;;;;;;0.10;0.10;;;2.90;99.90;;;;;;5056805;28;20184;-80
2023/01/28 02:54:47;;;;;;;0.10;0.10;;;2.90;99.90;;;;;;5060252;28;20208;-81
2023/01/28 02:57:35;;;;;;;0.10;0.10;;;3.00;99.90;;;;;;5059540;28;20477;-79
2023/01/28 03:00:10;;;;;;;0.00;0.00;;;2.90;99.90;;;;;;5061712;28;20294;-81
2023/01/28 03:02:49;;;;;;;0.10;0.10;;;2.90;99.90;;;;;;5059008;28;20230;-80
2023/01/28 03:05:29;;;;;;;0.10;0.10;;;2.90;99.90;;;;;;5060685;28;20188;-81
2023/01/28 03:07:55;;;;;;;0.00;0.00;;;2.90;99.90;;;;;;5057781;28;20181;-81
2023/01/28 03:10:25;;;;;;;0.00;0.00;;;2.90;99.90;;;;;;5056162;28;20574;-81
2023/01/28 03:38:32;;;;;;;0.10;0.10;;;2.90;99.90;;;;;;5059848;28;20318;-81
2023/01/28 03:41:02;;;;;;;0.10;0.10;;;2.90;99.90;;;;;;5059564;28;20554;-81
2023/01/28 03:43:29;;;;;;;0.10;0.10;;;2.90;99.90;;;;;;5057805;28;20179;-81
2023/01/28 03:45:55;;;;;;;0.10;0.10;;;2.90;99.90;;;;;;5059023;28;20213;-81
2023/01/28 03:48:23;;;;;;;0.10;0.10;;;2.90;99.90;;;;;;5058246;28;20230;-80
2023/01/28 03:50:50;;;;;;;0.10;0.10;;;2.90;99.90;;;;;;5059214;28;20260;-80
2023/01/28 03:53:17;;;;;;;0.00;0.00;;;2.90;99.90;;;;;;5058218;28;20188;-80
2023/01/28 03:55:44;;;;;;;0.10;0.10;;;2.90;99.90;;;;;;5058484;28;20183;-81
2023/01/28 03:58:10;;;;;;;0.03;0.03;;;3.00;99.90;;;;;;5057586;28;20218;-80
2023/01/28 04:00:42;;;;;;;0.10;0.10;;;2.90;99.90;;;;;;5060501;28;20600;-80
2023/01/28 04:03:16;;;;;;;0.10;0.10;;;2.90;99.90;;;;;;5059480;28;20177;-80
2023/01/28 04:06:00;;;;;;;0.10;0.10;;;2.90;99.90;;;;;;5061055;28;20184;-80
2023/01/28 04:08:26;;;;;;;0.10;0.10;;;2.90;99.90;;;;;;5053813;28;20182;-81
2023/01/28 04:10:51;;;;;;;0.10;0.10;;;2.90;99.90;;;;;;5061982;28;20183;-81
2023/01/28 04:13:17;;;;;;;0.10;0.10;;;2.90;99.90;;;;;;5060592;28;20189;-79
2023/01/28 04:15:44;;;;;;;0.10;0.10;;;2.90;99.90;;;;;;5060551;28;20190;-81
2023/01/28 04:18:09;;;;;;;0.00;0.00;;;2.90;99.90;;;;;;5058033;28;20204;-81
2023/01/28 04:20:36;;;;;;;0.10;0.10;;;2.90;99.90;;;;;;5060420;28;20262;-81
2023/01/28 04:23:01;;;;;;;0.10;0.10;;;2.90;99.90;;;;;;5058666;28;20233;-81
2023/01/28 04:25:27;;;;;;;0.10;0.10;;;2.90;99.90;;;;;;5059496;28;20175;-80
2023/01/28 04:27:52;;;;;;;0.50;0.50;;;2.90;99.90;;;;;;5055700;28;20180;-81
2023/01/28 04:30:18;;;;;;;0.10;0.10;;;2.90;99.90;;;;;;5061860;28;20198;-80
2023/01/28 04:32:46;;;;;;;0.00;0.00;;;2.90;99.90;;;;;;5061862;28;20184;-80
2023/01/28 04:35:12;;;;;;;0.10;0.10;;;2.90;99.90;;;;;;5060235;28;20198;-80
2023/01/28 04:37:39;;;;;;;0.10;0.10;;;2.80;99.90;;;;;;5061353;28;20640;-80
2023/01/28 04:40:06;;;;;;;0.10;0.10;;;2.80;99.90;;;;;;5060883;28;20207;-80
2023/01/28 04:42:31;;;;;;;0.10;0.10;;;2.70;99.90;;;;;;5061917;28;20268;-81
2023/01/28 04:44:57;;;;;;;0.10;0.10;;;2.70;99.90;;;;;;5061343;28;21028;-81
2023/01/28 04:47:22;;;;;;;0.10;0.10;;;2.70;99.90;;;;;;5062577;28;20218;-80
2023/01/28 04:49:48;;;;;;;0.10;0.10;;;2.70;99.90;;;;;;5061366;28;20207;-81
2023/01/28 04:52:13;;;;;;;0.10;0.10;;;2.70;99.90;;;;;;5061799;28;20196;-81
2023/01/28 04:54:39;;;;;;;0.10;0.10;;;2.70;99.90;;;;;;5063500;28;20642;-80
2023/01/28 04:57:04;;;;;;;0.10;0.10;;;2.70;99.90;;;;;;5060935;28;20187;-80
2023/01/28 04:59:30;;;;;;;0.10;0.10;;;2.70;99.90;;;;;;5063717;28;20264;-80
2023/01/28 05:01:55;;;;;;;0.10;0.10;;;2.70;99.90;;;;;;5062517;28;20190;-81
2023/01/28 05:04:21;;;;;;;0.07;0.07;;;2.70;99.90;;;;;;5062990;28;20188;-80
2023/01/28 05:06:46;;;;;;;0.10;0.10;;;2.70;99.90;;;;;;5062229;28;20177;-80
2023/01/28 05:09:12;;;;;;;0.10;0.10;;;2.70;99.90;;;;;;5063564;28;20246;-80
2023/01/28 05:11:37;;;;;;;0.10;0.10;;;2.70;99.90;;;;;;5062461;28;20278;-81
2023/01/28 05:14:03;;;;;;;0.10;0.10;;;2.70;99.90;;;;;;5064224;28;20183;-81
2023/01/28 05:16:29;;;;;;;0.10;0.10;;;2.70;99.90;;;;;;5062522;28;20271;-79
2023/01/28 05:18:54;;;;;;;0.10;0.10;;;2.70;99.90;;;;;;5062454;28;20208;-80
2023/01/28 05:21:20;;;;;;;0.10;0.10;;;2.70;99.90;;;;;;5061369;28;20184;-80
2023/01/28 05:23:45;;;;;;;0.00;0.00;;;2.70;99.90;;;;;;5062285;28;20180;-80
2023/01/28 05:26:11;;;;;;;0.10;0.10;;;2.60;99.90;;;;;;5061453;28;20647;-81
2023/01/28 05:28:36;;;;;;;0.10;0.10;;;2.70;99.90;;;;;;5061114;28;20241;-81
2023/01/28 05:31:06;;;;;;;0.10;0.10;;;2.70;99.90;;;;;;5062434;28;20285;-81
2023/01/28 05:33:32;;;;;;;0.10;0.10;;;2.70;99.90;;;;;;5061504;28;20252;-81
2023/01/28 05:35:58;;;;;;;0.10;0.10;;;2.70;99.90;;;;;;5062144;28;20191;-80
2023/01/28 05:38:23;;;;;;;0.10;0.10;;;2.70;99.90;;;;;;5062796;28;20242;-80
2023/01/28 05:40:49;;;;;;;0.10;0.10;;;2.70;99.90;;;;;;5059920;28;20649;-80
2023/01/28 05:43:15;;;;;;;0.10;0.10;;;2.70;99.90;;;;;;5060969;28;20199;-81
2023/01/28 05:45:40;;;;;;;0.10;0.10;;;2.70;99.90;;;;;;5059378;28;20608;-79
2023/01/28 05:48:06;;;;;;;0.10;0.10;;;2.70;99.90;;;;;;5062604;28;20202;-81
2023/01/28 05:50:32;;;;;;;0.10;0.10;;;2.70;99.90;;;;;;5061911;28;20213;-82
2023/01/28 05:52:57;;;;;;;0.10;0.10;;;2.70;99.90;;;;;;5062448;28;20185;-81
2023/01/28 05:55:23;;;;;;;0.10;0.10;;;2.70;99.90;;;;;;5063028;28;20433;-81
2023/01/28 05:57:49;;;;;;;0.10;0.10;;;2.70;99.90;;;;;;5060707;28;20216;-80
2023/01/28 06:00:15;;;;;;;0.10;0.10;;;2.70;99.90;;;;;;5061401;28;20335;-79
2023/01/28 06:02:44;;;;;;;0.10;0.10;;;2.70;99.90;;;;;;5062297;28;20192;-80
2023/01/28 06:05:09;;;;;;;4.47;4.23;;;2.70;99.90;;;;;;5062502;28;20273;-81
2023/01/28 06:07:35;;;;;;;0.13;0.13;;;2.80;99.90;;;;;;5063062;28;20738;-80
2023/01/28 06:10:00;;;;;;;0.10;0.10;;;2.70;99.90;;;;;;5062640;28;20221;-81
2023/01/28 06:12:26;;;;;;;0.10;0.10;;;2.80;99.90;;;;;;5060256;28;20550;-81
2023/01/28 06:14:52;;;;;;;0.10;0.10;;;2.80;99.90;;;;;;5062686;28;20250;-81
2023/01/28 06:17:17;;;;;;;0.10;0.10;;;2.90;99.90;;;;;;5060742;28;20215;-80
2023/01/28 06:19:43;;;;;;;0.10;0.10;;;2.90;99.90;;;;;;5062429;28;20197;-80
2023/01/28 06:22:09;;;;;;;0.10;0.10;;;2.90;99.90;;;;;;5063746;28;20181;-81
2023/01/28 06:24:35;;;;;;;0.10;0.10;;;2.90;99.90;;;;;;5062639;28;20180;-80
2023/01/28 06:27:00;;;;;;;0.10;0.10;;;2.80;99.90;;;;;;5060170;28;21175;-81
2023/01/28 06:29:26;;;;;;;0.10;0.10;;;2.80;99.90;;;;;;5064338;28;20666;-80
2023/01/28 06:31:52;;;;;;;0.10;0.10;;;2.70;99.90;;;;;;5057571;28;20206;-81
2023/01/28 06:34:18;;;;;;;0.10;0.10;;;2.70;99.90;;;;;;5059764;28;20270;-81
2023/01/28 06:36:44;;;;;;;0.10;0.10;;;2.60;99.90;;;;;;5057409;28;20274;-82
2023/01/28 06:39:09;;;;;;;0.10;0.10;;;2.70;99.90;;;;;;5059713;28;20265;-82
2023/01/28 06:41:35;;;;;;;0.10;0.10;;;2.60;99.90;;;;;;5058072;28;20591;-82
2023/01/28 06:44:01;;;;;;;0.10;0.10;;;2.50;99.90;;;;;;5060869;28;20194;-83
2023/01/28 06:46:27;;;;;;;0.10;0.10;;;2.40;99.90;;;;;;5058252;28;20188;-82
2023/01/28 06:48:52;;;;;;;0.10;0.10;;;2.40;99.90;;;;;;5057515;28;20219;-82
2023/01/28 06:51:18;;;;;;;0.10;0.10;;;2.40;99.90;;;;;;5063102;28;20193;-82
2023/01/28 06:53:43;;;;;;;0.10;0.10;;;2.50;99.90;;;;;;5060259;28;20205;-82
2023/01/28 06:56:09;;;;;;;0.10;0.10;;;2.50;99.90;;;;;;5062528;28;20188;-82
2023/01/28 06:58:34;;;;;;;0.10;0.10;;;2.50;99.90;;;;;;5057672;28;20238;-81
2023/01/28 07:01:00;;;;;;;0.20;0.20;;;2.40;99.90;;;;;;5060598;28;20286;-80
2023/01/28 07:03:26;;;;;;;0.10;0.10;;;2.40;99.90;;;;;;5060668;28;20190;-81
2023/01/28 07:05:51;;;;;;;0.10;0.10;;;2.40;99.90;;;;;;5063099;28;20223;-82
2023/01/28 07:08:17;;;;;;;0.10;0.10;;;2.40;99.90;;;;;;5061884;28;20208;-81
2023/01/28 07:10:43;;;;;;;0.10;0.10;;;2.40;99.90;;;;;;5061740;28;20215;-80
2023/01/28 07:13:09;;;;;;;0.10;0.10;;;2.40;99.90;;;;;;5061190;28;20765;-82
2023/01/28 07:15:35;;;;;;;0.10;0.10;;;2.40;99.90;;;;;;5060567;28;20557;-80
2023/01/28 07:18:00;;;;;;;0.10;0.10;;;2.40;99.90;;;;;;5060519;28;20214;-80
2023/01/28 07:20:26;;;;;;;0.10;0.10;;;2.50;99.90;;;;;;5062497;28;20812;-81
2023/01/28 07:22:51;;;;;;;0.10;0.10;;;2.50;99.90;;;;;;5061373;28;20193;-81
2023/01/28 07:25:17;;;;;;;0.10;0.10;;;2.50;99.90;;;;;;5060917;28;20291;-80
2023/01/28 07:27:51;;;;;;;0.10;0.10;;;2.50;99.90;;;;;;5061682;28;20203;-80
2023/01/28 07:30:18;;;;;;;0.10;0.10;;;2.50;99.90;;;;;;5061869;28;20205;-81
2023/01/28 07:32:44;;;;;;;0.10;0.10;;;2.50;99.90;;;;;;5059433;28;20673;-79
2023/01/28 07:35:10;;;;;;;0.10;0.10;;;2.50;99.90;;;;;;5059928;28;20203;-81
2023/01/28 07:37:36;;;;;;;0.00;0.00;;;2.50;99.90;;;;;;5063590;28;20216;-81
2023/01/28 07:40:01;;;;;;;0.00;0.00;;;2.50;99.90;;;;;;5053496;28;20239;-80
2023/01/28 07:42:27;;;;;;;0.10;0.10;;;2.50;99.90;;;;;;5060714;28;20194;-80
2023/01/28 07:44:52;;;;;;;0.10;0.10;;;2.50;99.90;;;;;;5062202;28;20196;-81
2023/01/28 07:47:18;;;;;;;0.00;0.00;;;2.50;99.90;;;;;;5058414;28;20202;-81
2023/01/28 07:49:44;;;;;;;0.10;0.10;;;2.50;99.90;;;;;;5058757;28;20311;-81
2023/01/28 07:52:10;;;;;;;0.10;0.10;;;2.50;99.90;;;;;;5062741;28;20249;-81
2023/01/28 07:54:35;;;;;;;0.10;0.10;;;2.50;99.90;;;;;;5059406;28;20200;-81
2023/01/28 07:57:08;;;;;;;0.10;0.10;;;2.50;99.90;;;;;;5055518;28;20192;-81
2023/01/28 07:59:34;;;;;;;0.10;0.10;;;2.50;99.90;;;;;;5061122;28;20250;-81
2023/01/28 08:02:00;;;;;;;0.10;0.10;;;2.60;99.90;;;;;;5059975;28;20263;-81
2023/01/28 08:04:25;;;;;;;0.10;0.10;;;2.50;99.90;;;;;;5063154;28;20186;-81
2023/01/28 08:06:51;;;;;;;0.10;0.10;;;2.50;99.90;;;;;;5063057;28;20265;-81
2023/01/28 08:09:17;;;;;;;0.10;0.10;;;2.50;99.90;;;;;;5054520;28;20689;-81
2023/01/28 08:11:42;;;;;;;0.10;0.10;;;2.60;99.90;;;;;;5062495;28;20188;-82
2023/01/28 08:14:10;;;;;;;0.10;0.10;;;2.60;99.90;;;;;;5060095;28;20245;-81
2023/01/28 08:16:35;;;;;;;0.10;0.10;;;2.50;99.90;;;;;;5064209;28;20267;-82
2023/01/28 08:19:01;;;;;;;0.10;0.10;;;2.50;99.90;;;;;;5063642;28;20301;-81
2023/01/28 08:21:27;;;;;;;0.10;0.10;;;2.50;99.90;;;;;;5062022;28;20195;-80
2023/01/28 08:23:53;;;;;;;0.10;0.10;;;2.60;99.90;;;;;;5061545;28;20200;-81
2023/01/28 08:26:19;;;;;;;0.10;0.10;;;2.50;99.90;;;;;;5057877;28;20279;-82
2023/01/28 08:28:44;;;;;;;0.10;0.10;;;2.60;99.90;;;;;;5063027;28;20307;-82
2023/01/28 08:31:10;;;;;;;0.10;0.10;;;2.50;99.90;;;;;;5060751;28;20193;-81
2023/01/28 08:33:35;;;;;;;0.10;0.10;;;2.60;99.90;;;;;;5060213;28;20188;-80
2023/01/28 08:36:03;;;;;;;0.10;0.10;;;2.60;99.90;;;;;;5063110;28;20246;-82
2023/01/28 08:38:28;;;;;;;0.10;0.10;;;2.50;99.90;;;;;;5061373;28;20575;-80
2023/01/28 08:40:56;;;;;;;0.10;0.10;;;2.50;99.90;;;;;;5062167;28;20196;-81
2023/01/28 08:43:22;;;;;;;0.10;0.10;;;2.60;99.90;;;;;;5044914;28;20179;-81
2023/01/28 08:45:47;;;;;;;0.10;0.10;;;2.50;99.90;;;;;;5060860;28;20264;-80
2023/01/28 08:48:16;;;;;;;0.10;0.10;;;2.50;99.90;;;;;;5054670;28;20212;-81
2023/01/28 08:50:42;;;;;;;0.10;0.10;;;2.60;99.90;;;;;;5055501;28;20196;-81
2023/01/28 08:53:14;;;;;;;0.10;0.10;;;2.60;99.90;;;;;;5063113;28;20189;-80
2023/01/28 08:55:40;;;;;;;0.10;0.10;;;2.70;99.90;;;;;;5058335;28;20204;-81
2023/01/28 08:58:11;;;;;;;0.10;0.10;;;2.70;99.90;;;;;;5058748;28;20208;-80
2023/01/28 09:00:37;;;;;;;0.00;0.00;;;2.70;99.90;;;;;;5058607;28;20249;-80
2023/01/28 09:03:03;;;;;;;0.10;0.10;;;2.60;99.90;;;;;;5061596;28;21115;-81
2023/01/28 09:05:30;;;;;;;3.70;3.50;;;2.70;99.90;;;;;;5057804;28;20193;-81
2023/01/28 09:07:59;;;;;;;0.10;0.10;;;2.70;99.90;;;;;;5054144;28;20206;-81
2023/01/28 09:10:24;;;;;;;0.10;0.10;;;2.70;99.90;;;;;;5061137;28;20274;-80
2023/01/28 09:12:50;;;;;;;0.10;0.10;;;2.70;99.90;;;;;;5061819;28;20606;-80
2023/01/28 09:15:16;;;;;;;0.10;0.10;;;2.70;99.90;;;;;;5061109;28;20655;-82
2023/01/28 09:17:42;;;;;;;0.10;0.10;;;2.70;99.90;;;;;;5059344;28;20204;-82
2023/01/28 09:20:08;;;;;;;0.10;0.10;;;2.70;99.90;;;;;;5060041;28;20218;-82
2023/01/28 09:22:34;;;;;;;0.10;0.10;;;2.70;99.90;;;;;;5062457;28;20185;-82
2023/01/28 09:25:00;;;;;;;0.10;0.10;;;2.80;99.90;;;;;;5060020;28;20256;-82
2023/01/28 09:27:25;;;;;;;0.10;0.10;;;2.70;99.90;;;;;;5059415;28;20659;-82
2023/01/28 09:29:51;;;;;;;1.20;1.20;;;2.60;99.90;;;;;;5060392;28;20291;-80
2023/01/28 09:32:16;;;;;;;0.10;0.10;;;2.60;99.90;;;;;;5060662;28;20188;-81
2023/01/28 09:34:43;;;;;;;0.10;0.10;;;2.80;99.90;;;;;;5054978;28;20273;-82
2023/01/28 09:37:10;;;;;;;0.10;0.10;;;2.80;99.90;;;;;;5059384;28;20180;-82
2023/01/28 09:39:36;;;;;;;0.10;0.10;;;2.80;99.90;;;;;;5058398;28;20931;-81
2023/01/28 09:42:08;;;;;;;0.10;0.10;;;2.80;99.90;;;;;;5057304;28;20195;-81
2023/01/28 09:45:01;;;;;;;0.10;0.10;;;2.80;99.90;;;;;;5060665;28;20547;-80
2023/01/28 09:47:29;;;;;;;0.10;0.10;;;2.80;99.90;;;;;;5058225;28;20223;-81
2023/01/28 09:49:59;;;;;;;0.10;0.10;;;2.90;99.90;;;;;;5056191;28;20201;-81
2023/01/28 09:52:29;;;;;;;0.10;0.10;;;2.90;99.90;;;;;;5058794;28;20202;-83
2023/01/28 09:55:03;;;;;;;0.10;0.10;;;3.00;99.90;;;;;;5060446;28;20187;-84
2023/01/28 09:57:49;;;;;;;0.10;0.10;;;3.00;99.90;;;;;;5054523;28;20234;-81
2023/01/28 10:00:18;;;;;;;0.10;0.10;;;2.90;99.90;;;;;;5060606;28;20227;-80
2023/01/28 10:03:46;;;;;;;0.00;0.00;;;3.00;99.90;;;;;;5055860;28;20192;-82
2023/01/28 10:06:23;;;;;;;0.00;0.00;;;2.90;99.90;;;;;;4987102;28;20200;-80
2023/01/28 10:09:21;;;;;;;0.10;0.10;;;3.00;99.90;;;;;;5048305;28;20250;-80
2023/01/28 10:11:55;;;;;;;0.10;0.10;;;2.90;99.90;;;;;;5057543;28;20188;-81
2023/01/28 10:14:51;;;;;;;0.10;0.10;;;3.00;99.90;;;;;;5059058;28;20560;-81
2023/01/28 10:17:40;;;;;;;0.10;0.10;;;3.00;99.90;;;;;;5068629;28;20671;-81
2023/01/28 10:20:10;;;;;;;0.10;0.10;;;2.80;99.90;;;;;;5060291;28;20203;-82
2023/01/28 10:22:44;;;;;;;0.10;0.10;;;3.10;99.90;;;;;;5062799;28;20263;-83
2023/01/28 10:25:30;;;;;;;0.10;0.10;;;3.10;99.90;;;;;;5063210;28;20178;-82
2023/01/28 10:27:57;;;;;;;0.10;0.10;;;2.90;99.90;;;;;;5063384;28;20194;-82
2023/01/28 10:30:26;;;;;;;0.10;0.10;;;2.90;99.90;;;;;;5062980;28;20228;-82
2023/01/28 10:32:55;;;;;;;0.10;0.10;;;2.90;99.90;;;;;;5064277;28;20203;-82
2023/01/28 10:35:21;;;;;;;0.10;0.10;;;2.90;99.90;;;;;;5061867;28;20186;-82
2023/01/28 10:37:47;;;;;;;0.00;0.00;;;2.80;99.90;;;;;;5059841;28;20666;-81
2023/01/28 10:40:17;;;;;;;0.00;0.00;;;2.90;99.90;;;;;;5063908;28;20203;-82
2023/01/28 10:42:43;;;;;;;0.10;0.10;;;2.80;99.90;;;;;;5067050;28;20252;-82
2023/01/28 10:45:27;;;;;;;0.10;0.10;;;3.00;99.90;;;;;;5064612;28;20253;-82
2023/01/28 10:48:00;;;;;;;0.10;0.10;;;3.00;99.90;;;;;;5066011;28;20199;-82
2023/01/28 10:50:28;;;;;;;0.10;0.10;;;3.00;99.90;;;;;;5063525;28;20209;-82
2023/01/28 10:52:58;;;;;;;0.10;0.10;;;3.10;99.90;;;;;;5065358;28;20185;-82
2023/01/28 10:55:48;;;;;;;0.10;0.10;;;3.00;99.90;;;;;;5065167;28;20185;-83
2023/01/28 10:58:19;;;;;;;0.10;0.10;;;3.00;99.90;;;;;;5054601;28;20223;-82
2023/01/28 11:00:50;;;;;;;0.10;0.10;;;3.00;99.90;;;;;;5063056;28;20203;-83
2023/01/28 11:03:20;;;;;;;0.00;0.00;;;2.90;99.90;;;;;;5063138;28;20175;-82
2023/01/28 11:06:04;;;;;;;0.10;0.10;;;3.00;99.90;;;;;;5062748;28;20840;-82
2023/01/28 11:08:30;;;;;;;0.10;0.10;;;3.00;99.90;;;;;;5065609;28;20732;-83
2023/01/28 11:10:56;;;;;;;0.10;0.10;;;3.00;99.90;;;;;;5065396;28;20669;-83
2023/01/28 11:13:27;;;;;;;0.10;0.10;;;2.90;99.90;;;;;;5066019;28;20259;-80
2023/01/28 11:16:05;;;;;;;0.10;0.10;;;2.90;99.90;;;;;;5066941;28;20185;-82
2023/01/28 11:18:35;;;;;;;0.10;0.10;;;3.00;99.90;;;;;;5066366;28;21101;-82
2023/01/28 11:21:06;;;;;;;0.10;0.10;;;3.00;99.90;;;;;;5064039;28;20271;-81
2023/01/28 11:23:37;;;;;;;0.10;0.10;;;3.00;99.90;;;;;;5062178;28;20216;-83
2023/01/28 11:26:14;;;;;;;0.10;0.10;;;3.00;99.90;;;;;;5060243;28;20189;-82
2023/01/28 11:28:42;;;;;;;0.10;0.10;;;2.90;99.90;;;;;;5061053;28;21088;-82
2023/01/28 11:31:12;;;;;;;0.10;0.10;;;2.70;99.90;;;;;;5062062;28;20191;-82
2023/01/28 11:33:56;;;;;;;0.20;0.20;;;2.70;99.90;;;;;;5062322;28;20276;-83
2023/01/28 11:36:24;;;;;;;0.10;0.10;;;2.70;99.90;;;;;;5062801;28;20178;-82
2023/01/28 11:38:55;;;;;;;0.10;0.10;;;2.80;99.90;;;;;;5059974;28;20205;-82
2023/01/28 11:41:33;;;;;;;0.10;0.10;;;2.90;99.90;;;;;;5065249;28;20179;-83
2023/01/28 11:44:19;;;;;;;0.10;0.10;;;2.80;99.90;;;;;;5067778;28;20902;-82
2023/01/28 11:46:57;;;;;;;0.10;0.10;;;2.80;99.90;;;;;;5076094;28;20219;-83
2023/01/28 11:49:44;;;;;;;0.10;0.10;;;2.80;99.90;;;;;;5069572;28;20207;-83
2023/01/28 11:52:34;;;;;;;0.10;0.10;;;2.80;99.90;;;;;;5067632;28;20331;-82
2023/01/28 11:55:18;;;;;;;0.10;0.10;;;2.70;99.90;;;;;;5082384;28;20181;-81
2023/01/28 11:57:53;;;;;;;0.10;0.10;;;2.70;99.90;;;;;;5064601;28;20688;-82
2023/01/28 12:01:07;;;;;;;0.10;0.10;;;2.70;99.90;;;;;;5065335;28;20410;-82
2023/01/28 12:03:39;;;;;;;0.10;0.10;;;2.60;99.90;;;;;;5056883;28;20190;-82
2023/01/28 12:06:41;;;;;;;0.10;0.10;;;2.60;99.90;;;;;;5065811;28;20325;-82
2023/01/28 12:09:09;;;;;;;0.10;0.10;;;2.60;99.90;;;;;;5064762;28;20242;-83
2023/01/28 12:14:52;;;;;;;0.10;0.10;;;2.80;99.90;;;;;;5066814;28;20198;-82
2023/01/28 12:17:52;;;;;;;0.10;0.10;;;2.50;99.90;;;;;;5065422;28;20385;-82
2023/01/28 12:20:33;;;;;;;0.10;0.10;;;2.40;99.90;;;;;;5065225;28;20204;-83
2023/01/28 12:23:30;;;;;;;0.10;0.10;;;2.30;99.90;;;;;;5067322;28;20175;-81
2023/01/28 12:26:13;;;;;;;0.10;0.10;;;2.20;99.90;;;;;;5066316;28;20203;-83
2023/01/28 12:29:00;;;;;;;0.00;0.00;;;2.30;99.90;;;;;;5076445;28;20307;-81
2023/01/28 12:31:55;;;;;;;0.10;0.10;;;2.30;99.90;;;;;;5068467;28;20192;-82
2023/01/28 12:35:03;;;;;;;0.10;0.10;;;2.30;99.90;;;;;;5068539;28;20462;-82
2023/01/28 12:38:04;;;;;;;0.00;0.00;;;2.20;99.90;;;;;;5069896;28;20218;-83
2023/01/28 12:40:45;;;;;;;0.10;0.10;;;2.20;99.90;;;;;;5068142;28;20785;-81
2023/01/28 12:43:21;;;;;;;0.10;0.10;;;2.30;99.90;;;;;;5070090;28;20194;-81
2023/01/28 12:46:32;;;;;;;0.10;0.10;;;2.50;99.90;;;;;;5069359;28;20618;-81
2023/01/28 12:49:15;;;;;;;0.10;0.10;;;2.50;99.90;;;;;;5060050;28;20281;-82
2023/01/28 12:52:19;;;;;;;0.10;0.10;;;2.40;99.90;;;;;;5066280;28;20257;-83
2023/01/28 12:55:14;;;;;;;0.10;0.10;;;2.50;99.90;;;;;;5066719;28;20186;-82
2023/01/28 12:57:40;;;;;;;0.10;0.10;;;2.60;99.90;;;;;;5057595;28;20230;-82
2023/01/28 13:00:27;;;;;;;0.10;0.10;;;2.50;99.90;;;;;;5067265;28;20215;-82
2023/01/28 13:03:20;;;;;;;0.00;0.00;;;2.50;99.90;;;;;;5067588;28;20195;-82
2023/01/28 13:05:51;;;;;;;0.10;0.10;;;2.50;99.90;;;;;;5065311;28;20686;-82
2023/01/28 13:08:28;;;;;;;0.10;0.10;;;2.40;99.90;;;;;;5066420;28;20185;-81
2023/01/28 13:10:59;;;;;;;0.10;0.10;;;2.40;99.90;;;;;;5065819;28;20187;-81
2023/01/28 13:13:35;;;;;;;0.10;0.10;;;2.40;99.90;;;;;;5063533;28;20195;-82
2023/01/28 13:16:02;;;;;;;0.10;0.10;;;2.50;99.90;;;;;;5065886;28;20204;-81
2023/01/28 13:18:34;;;;;;;0.10;0.10;;;2.40;99.90;;;;;;5066592;28;20209;-81
2023/01/28 13:21:01;;;;;;;0.10;0.10;;;2.40;99.90;;;;;;5065487;28;21094;-83
2023/01/28 13:23:30;;;;;;;0.10;0.10;;;2.30;99.90;;;;;;5062952;28;20596;-82
2023/01/28 13:26:25;;;;;;;0.10;0.10;;;2.40;99.90;;;;;;5065304;28;20189;-82
2023/01/28 13:28:52;;;;;;;0.10;0.10;;;2.40;99.90;;;;;;5063881;28;20322;-81
2023/01/28 13:31:23;;;;;;;0.10;0.10;;;2.40;99.90;;;;;;5063905;28;20184;-83
2023/01/28 13:33:54;;;;;;;0.10;0.10;;;2.50;99.90;;;;;;5062294;28;20216;-82
2023/01/28 13:36:30;;;;;;;0.10;0.10;;;2.50;99.90;;;;;;5063641;28;20195;-82
2023/01/28 13:39:00;;;;;;;0.10;0.10;;;2.60;99.90;;;;;;5061932;28;20228;-82
2023/01/28 13:41:43;;;;;;;0.10;0.10;;;2.50;99.90;;;;;;5064456;28;20210;-82
2023/01/28 13:44:36;;;;;;;0.10;0.10;;;2.60;99.90;;;;;;5065017;28;20590;-82
2023/01/28 13:47:08;;;;;;;0.10;0.10;;;2.50;99.90;;;;;;5063274;28;20196;-82
2023/01/28 13:49:52;;;;;;;0.00;0.00;;;2.50;99.90;;;;;;5063840;28;20382;-83